Terminal Aerodrome Forecast
Issued by NWS

Home | Current Version | Previous Version | Text Only | Print | Product List | Glossary On
Versions: 1 2 3 4 5 6 7 8 9 10 11 12 13 14 15 16 17 18 19 20 21 22 23 24 25 26 27 28 29 30 31 32 33 34 35 36 37 38 39 40 41 42 43
000
FTUS45 KBOU 281739
TAFBJC
TAF
KBJC 281739Z 2818/2918 27013G21KT P6SM FEW080
      TEMPO 2820/2824 29018G26KT
     FM290100 25008KT P6SM FEW090 SCT180
     FM290500 32009KT P6SM SCT080 SCT140
     FM290900 35012G20KT P6SM SCT070 SCT110
     FM291300 05008KT P6SM FEW080 SCT200
      TEMPO 2914/2918 04010G15KT=

USA.gov is the U.S. government's official web portal to all federal, state and local government web resources and services.